createdAt,value
2022-08-08T00:00:55.783Z,6.90
2022-08-08T00:03:28.456Z,6.57
2022-08-08T00:06:09.131Z,6.18
2022-08-08T00:08:49.955Z,6.75
2022-08-08T00:11:47.033Z,6.05
2022-08-08T00:14:59.606Z,6.45
2022-08-08T00:17:58.368Z,6.40
2022-08-08T00:20:45.307Z,6.47
2022-08-08T00:23:28.491Z,6.20
2022-08-08T00:26:21.699Z,6.25
2022-08-08T00:29:07.667Z,6.50
2022-08-08T00:32:15.245Z,6.30
2022-08-08T00:35:20.267Z,5.97
2022-08-08T00:38:31.327Z,6.68
2022-08-08T00:42:08.975Z,5.57
2022-08-08T00:45:54.085Z,6.40
2022-08-08T00:49:21.941Z,6.03
2022-08-08T00:52:19.426Z,6.00
2022-08-08T00:55:52.433Z,5.75
2022-08-08T00:58:35.501Z,6.70
2022-08-08T01:01:29.327Z,6.32
2022-08-08T01:05:42.201Z,6.75
2022-08-08T01:09:35.970Z,7.13
2022-08-08T01:13:43.712Z,6.95
2022-08-08T01:16:50.414Z,6.88
2022-08-08T01:20:21.920Z,6.28
2022-08-08T01:24:03.266Z,6.60
2022-08-08T01:27:10.616Z,6.43
2022-08-08T01:30:25.549Z,6.18
2022-08-08T01:33:54.013Z,6.72
2022-08-08T01:37:51.132Z,6.35
2022-08-08T01:40:28.129Z,7.30
2022-08-08T01:43:07.943Z,6.70
2022-08-08T01:46:03.737Z,6.05
2022-08-08T01:48:56.545Z,6.80
2022-08-08T01:52:42.795Z,6.18
2022-08-08T01:55:44.876Z,6.45
2022-08-08T01:58:32.075Z,6.78
2022-08-08T02:01:22.003Z,6.75
2022-08-08T02:04:13.528Z,6.35
2022-08-08T02:07:01.246Z,6.43
2022-08-08T02:10:03.944Z,6.55
2022-08-08T02:12:54.382Z,6.00
2022-08-08T02:15:38.535Z,6.85
2022-08-08T02:18:16.820Z,7.05
2022-08-08T02:21:18.305Z,7.03
2022-08-08T02:24:00.824Z,6.10
2022-08-08T02:26:47.361Z,6.63
2022-08-08T02:29:54.824Z,7.03
2022-08-08T02:32:53.558Z,7.28
2022-08-08T02:36:03.767Z,6.63
2022-08-08T02:38:50.785Z,6.22
2022-08-08T02:42:03.927Z,6.38
2022-08-08T02:45:28.715Z,6.43
2022-08-08T02:48:36.982Z,6.80
2022-08-08T02:52:11.506Z,7.07
2022-08-08T02:56:01.508Z,6.53
2022-08-08T03:00:01.590Z,6.60
2022-08-08T03:05:01.335Z,6.95
2022-08-08T03:07:41.566Z,6.50
2022-08-08T03:11:48.015Z,6.30
2022-08-08T03:15:59.841Z,7.65
2022-08-08T03:18:04.824Z,6.75
2022-08-08T03:20:51.412Z,6.70
2022-08-08T03:23:30.398Z,6.82
2022-08-08T03:26:09.080Z,6.78
2022-08-08T03:28:51.079Z,7.22
2022-08-08T03:32:06.475Z,7.03
2022-08-08T03:34:29.994Z,7.72
2022-08-08T03:36:58.381Z,8.10
2022-08-08T03:39:28.331Z,7.60
2022-08-08T03:42:26.774Z,7.18
2022-08-08T03:44:52.318Z,7.32
2022-08-08T03:47:23.975Z,7.25
2022-08-08T03:50:00.715Z,7.45
2022-08-08T03:52:35.806Z,7.85
2022-08-08T03:55:20.121Z,7.70
2022-08-08T03:58:33.577Z,7.80
2022-08-08T04:01:24.237Z,7.38
2022-08-08T04:03:58.675Z,7.53
2022-08-08T04:06:33.061Z,7.80
2022-08-08T04:09:11.230Z,7.82
2022-08-08T04:11:48.570Z,7.65
2022-08-08T04:14:45.296Z,7.45
2022-08-08T04:17:22.473Z,8.27
2022-08-08T04:20:04.651Z,7.63
2022-08-08T04:22:34.490Z,8.63
2022-08-08T04:25:05.542Z,7.70
2022-08-08T04:28:01.770Z,8.05
2022-08-08T04:30:24.205Z,8.07
2022-08-08T04:32:54.728Z,7.80
2022-08-08T04:35:29.418Z,7.95
2022-08-08T04:38:01.191Z,7.95
2022-08-08T04:40:34.621Z,7.80
2022-08-08T04:43:05.591Z,8.23
2022-08-08T04:45:41.843Z,7.80
2022-08-08T04:48:11.448Z,8.13
2022-08-08T04:50:46.127Z,7.30
2022-08-08T04:54:27.629Z,7.88
2022-08-08T04:56:08.147Z,7.30
2022-08-08T04:58:38.537Z,7.35
2022-08-08T05:01:11.021Z,7.63
2022-08-08T05:04:11.281Z,6.68
2022-08-08T05:06:42.292Z,7.20
2022-08-08T05:09:11.314Z,7.30
2022-08-08T05:11:42.666Z,6.95
2022-08-08T05:14:20.475Z,7.72
2022-08-08T05:17:01.415Z,7.00
2022-08-08T05:20:12.961Z,7.20
2022-08-08T05:22:29.525Z,7.30
2022-08-08T05:24:59.577Z,6.88
2022-08-08T05:27:28.036Z,7.00
2022-08-08T05:30:04.021Z,6.32
2022-08-08T05:32:46.827Z,6.88
2022-08-08T05:35:23.546Z,7.00
2022-08-08T05:38:02.134Z,6.60
2022-08-08T05:40:48.970Z,7.38
2022-08-08T05:43:40.021Z,7.20
2022-08-08T05:46:17.671Z,6.43
2022-08-08T05:48:52.345Z,7.70
2022-08-08T05:51:24.274Z,6.63
2022-08-08T05:54:26.753Z,7.35
2022-08-08T05:56:48.483Z,7.10
2022-08-08T05:59:59.085Z,6.85
2022-08-08T06:02:54.953Z,7.22
2022-08-08T06:05:35.004Z,6.70
2022-08-08T06:08:09.553Z,6.00
2022-08-08T06:10:43.098Z,6.25
2022-08-08T06:13:12.894Z,5.93
2022-08-08T06:15:51.035Z,5.57
2022-08-08T06:18:30.067Z,4.68
2022-08-08T06:21:11.263Z,4.75
2022-08-08T06:23:53.098Z,4.22
2022-08-08T06:26:44.504Z,4.30
2022-08-08T06:29:56.456Z,4.95
2022-08-08T06:32:31.720Z,5.10
2022-08-08T06:36:00.667Z,5.60
2022-08-08T06:38:14.161Z,5.20
2022-08-08T06:40:48.537Z,4.68
2022-08-08T06:43:34.138Z,5.13
2022-08-08T06:46:14.011Z,5.22
2022-08-08T06:48:46.936Z,5.43
2022-08-08T06:51:18.395Z,5.07
2022-08-08T06:53:50.763Z,4.90
2022-08-08T06:56:33.047Z,4.90
2022-08-08T06:59:12.048Z,5.88
2022-08-08T07:02:27.102Z,5.55
2022-08-08T07:04:52.628Z,5.63
2022-08-08T07:07:42.085Z,5.30
2022-08-08T07:10:12.779Z,5.57
2022-08-08T07:12:48.270Z,5.93
2022-08-08T07:16:05.238Z,6.43
2022-08-08T07:18:49.296Z,5.82
2022-08-08T07:21:24.649Z,5.93
2022-08-08T07:24:09.514Z,5.78
2022-08-08T07:26:56.150Z,5.45
2022-08-08T07:30:01.600Z,5.30
2022-08-08T07:32:17.137Z,5.38
2022-08-08T07:35:00.413Z,5.70
2022-08-08T07:38:04.475Z,6.20
2022-08-08T07:40:32.674Z,5.13
2022-08-08T07:43:09.465Z,4.82
2022-08-08T07:46:05.666Z,4.97
2022-08-08T07:48:32.531Z,5.05
2022-08-08T07:51:02.623Z,5.47
2022-08-08T07:54:01.919Z,4.90
2022-08-08T07:56:59.829Z,4.32
2022-08-08T07:59:37.628Z,4.80
2022-08-08T08:02:34.377Z,5.13
2022-08-08T08:05:03.599Z,4.70
2022-08-08T08:07:38.776Z,4.78
2022-08-08T08:10:13.749Z,4.00
2022-08-08T08:12:59.139Z,3.85
2022-08-08T08:15:32.333Z,3.60
2022-08-08T08:18:06.589Z,3.60
2022-08-08T08:20:45.183Z,3.55
2022-08-08T08:23:14.307Z,3.58
2022-08-08T08:25:55.163Z,3.00
2022-08-08T08:28:26.853Z,2.60
2022-08-08T08:31:04.819Z,2.67
2022-08-08T08:33:35.939Z,2.75
2022-08-08T08:36:20.630Z,2.50
2022-08-08T08:38:51.845Z,2.83
2022-08-08T08:41:31.562Z,3.05
2022-08-08T08:44:13.423Z,2.83
2022-08-08T08:46:45.591Z,3.35
2022-08-08T08:49:19.362Z,2.80
2022-08-08T08:51:52.085Z,2.70
2022-08-08T08:54:26.163Z,2.30
2022-08-08T08:57:03.641Z,2.25
2022-08-08T08:59:59.972Z,3.22
2022-08-08T09:02:41.666Z,3.25
2022-08-08T09:05:48.884Z,3.45
2022-08-08T09:08:12.784Z,2.80
2022-08-08T09:10:48.463Z,3.00
2022-08-08T09:13:23.116Z,3.03
2022-08-08T09:16:03.492Z,3.58
2022-08-08T09:18:35.221Z,2.88
2022-08-08T09:21:57.614Z,2.63
2022-08-08T09:23:55.919Z,2.70
2022-08-08T09:26:47.146Z,3.03
2022-08-08T09:29:24.570Z,3.60
2022-08-08T09:32:06.327Z,3.05
2022-08-08T09:34:51.863Z,2.95
2022-08-08T09:37:58.828Z,2.90
2022-08-08T09:40:43.912Z,2.97
2022-08-08T09:44:04.996Z,2.90
2022-08-08T09:46:25.544Z,2.80
2022-08-08T09:49:18.143Z,2.97
2022-08-08T09:52:07.127Z,2.90
2022-08-08T09:54:44.928Z,2.78
2022-08-08T09:57:25.318Z,3.28
2022-08-08T10:02:48.937Z,2.83
2022-08-08T10:05:25.028Z,3.22
2022-08-08T10:08:00.272Z,2.83
2022-08-08T10:10:33.530Z,2.97
2022-08-08T10:13:18.975Z,2.33
2022-08-08T10:15:59.281Z,2.88
2022-08-08T10:18:33.430Z,3.03
2022-08-08T10:21:22.585Z,3.00
2022-08-08T10:23:56.335Z,3.08
2022-08-08T10:26:57.146Z,2.78
2022-08-08T10:29:43.834Z,2.72
2022-08-08T10:32:35.852Z,2.92
2022-08-08T10:36:01.871Z,2.88
2022-08-08T10:38:05.332Z,2.80
2022-08-08T10:40:34.590Z,2.63
2022-08-08T10:43:06.164Z,2.60
2022-08-08T10:45:55.719Z,2.67
2022-08-08T10:48:38.815Z,2.67
2022-08-08T10:51:24.119Z,2.30
2022-08-08T10:53:57.391Z,2.22
2022-08-08T10:56:34.465Z,2.45
2022-08-08T10:59:06.222Z,2.17
2022-08-08T11:01:35.061Z,2.25
2022-08-08T11:04:07.949Z,2.38
2022-08-08T11:06:41.871Z,2.20
2022-08-08T11:09:21.270Z,2.20
2022-08-08T11:12:06.466Z,2.30
2022-08-08T11:14:53.931Z,2.40
2022-08-08T11:18:00.508Z,2.33
2022-08-08T11:20:22.554Z,2.53
2022-08-08T11:22:59.129Z,2.50
2022-08-08T11:25:56.874Z,2.30
2022-08-08T11:28:30.672Z,2.67
2022-08-08T11:31:03.682Z,2.75
2022-08-08T11:33:51.851Z,2.50
2022-08-08T11:36:23.465Z,2.55
2022-08-08T11:38:58.543Z,2.38
2022-08-08T11:41:32.579Z,2.33
2022-08-08T11:44:03.540Z,2.53
2022-08-08T11:46:35.138Z,2.20
2022-08-08T11:49:11.505Z,2.80
2022-08-08T11:51:50.232Z,2.50
2022-08-08T11:54:33.697Z,2.40
2022-08-08T11:57:23.697Z,2.63
2022-08-08T12:00:06.012Z,2.30
2022-08-08T12:02:51.081Z,2.00
2022-08-08T12:05:22.808Z,2.10
2022-08-08T12:07:56.127Z,2.10
2022-08-08T12:10:27.875Z,1.92
2022-08-08T12:13:06.285Z,1.98
2022-08-08T12:15:42.832Z,2.20
2022-08-08T12:18:21.358Z,2.15
2022-08-08T12:20:56.629Z,2.38
2022-08-08T12:23:43.662Z,1.83
2022-08-08T12:26:27.793Z,2.38
2022-08-08T12:29:21.699Z,1.92
2022-08-08T12:32:09.627Z,1.80
2022-08-08T12:34:43.964Z,1.80
2022-08-08T12:37:20.691Z,1.80
2022-08-08T12:40:00.977Z,2.03
2022-08-08T12:42:32.806Z,1.92
2022-08-08T12:45:58.204Z,1.85
2022-08-08T12:48:09.890Z,2.17
2022-08-08T12:50:49.373Z,1.83
2022-08-08T12:53:24.705Z,1.80
2022-08-08T12:56:17.831Z,1.88
2022-08-08T12:58:51.353Z,1.70
2022-08-08T13:01:24.704Z,1.92
2022-08-08T13:04:18.723Z,1.95
2022-08-08T13:07:00.858Z,1.60
2022-08-08T13:09:51.376Z,2.30
2022-08-08T13:12:30.584Z,2.30
2022-08-08T13:15:03.135Z,1.90
2022-08-08T13:17:54.228Z,1.98
2022-08-08T13:20:24.043Z,1.98
2022-08-08T13:23:35.942Z,1.67
2022-08-08T13:25:58.815Z,1.80
2022-08-08T13:28:32.880Z,1.98
2022-08-08T13:31:03.994Z,1.73
2022-08-08T13:33:42.538Z,1.70
2022-08-08T13:36:12.067Z,1.70
2022-08-08T13:38:40.908Z,2.20
2022-08-08T13:41:16.412Z,2.30
2022-08-08T13:43:47.396Z,2.40
2022-08-08T13:46:28.841Z,2.20
2022-08-08T13:50:33.245Z,1.95
2022-08-08T13:51:58.246Z,2.70
2022-08-08T13:54:31.154Z,2.10
2022-08-08T13:57:03.168Z,2.45
2022-08-08T13:59:33.523Z,2.15
2022-08-08T14:02:07.781Z,2.60
2022-08-08T14:04:54.238Z,2.50
2022-08-08T14:07:24.631Z,3.28
2022-08-08T14:10:04.791Z,2.40
2022-08-08T14:12:40.657Z,2.28
2022-08-08T14:15:31.566Z,2.42
2022-08-08T14:18:35.789Z,3.55
2022-08-08T14:21:12.629Z,2.40
2022-08-08T14:24:03.988Z,2.50
2022-08-08T14:26:33.596Z,2.13
2022-08-08T14:29:06.078Z,2.28
2022-08-08T14:32:09.551Z,2.38
2022-08-08T14:34:37.390Z,2.03
2022-08-08T14:37:08.730Z,2.22
2022-08-08T14:39:48.447Z,2.38
2022-08-08T14:42:17.632Z,2.10
2022-08-08T14:45:00.322Z,2.17
2022-08-08T14:47:36.177Z,2.03
2022-08-08T14:50:14.207Z,1.92
2022-08-08T14:52:57.172Z,3.10
2022-08-08T14:55:35.385Z,2.47
2022-08-08T14:58:16.986Z,2.03
2022-08-08T15:00:49.825Z,2.40
2022-08-08T15:03:18.436Z,2.20
2022-08-08T15:05:53.337Z,2.20
2022-08-08T15:08:34.348Z,1.98
2022-08-08T15:11:11.192Z,2.17
2022-08-08T15:14:00.865Z,1.95
2022-08-08T15:16:29.631Z,2.03
2022-08-08T15:19:03.492Z,2.00
2022-08-08T15:21:31.606Z,2.17
2022-08-08T15:24:01.223Z,1.70
2022-08-08T15:26:32.629Z,2.08
2022-08-08T15:29:01.276Z,2.15
2022-08-08T15:32:03.115Z,1.85
2022-08-08T15:34:30.123Z,1.88
2022-08-08T15:37:02.289Z,1.95
2022-08-08T15:39:38.259Z,2.10
2022-08-08T15:42:10.631Z,1.90
2022-08-08T15:44:42.493Z,1.83
2022-08-08T15:47:16.169Z,1.88
2022-08-08T15:49:48.559Z,2.10
2022-08-08T15:52:27.872Z,2.15
2022-08-08T15:54:57.389Z,2.17
2022-08-08T15:57:26.175Z,2.10
2022-08-08T16:00:06.392Z,1.67
2022-08-08T16:02:50.407Z,2.38
2022-08-08T16:05:21.187Z,2.20
2022-08-08T16:07:53.003Z,1.88
2022-08-08T16:13:05.870Z,1.85
2022-08-08T16:13:33.543Z,1.90
2022-08-08T16:16:16.540Z,1.88
2022-08-08T16:18:56.431Z,1.70
2022-08-08T16:21:27.892Z,1.80
2022-08-08T16:23:58.060Z,1.73
2022-08-08T16:26:33.728Z,1.80
2022-08-08T16:29:09.082Z,1.80
2022-08-08T16:31:42.105Z,2.10
2022-08-08T16:34:18.401Z,2.00
2022-08-08T16:36:49.458Z,2.20
2022-08-08T16:39:28.408Z,2.10
2022-08-08T16:42:28.167Z,1.67
2022-08-08T16:44:58.854Z,2.00
2022-08-08T16:47:40.307Z,1.77
2022-08-08T16:50:14.175Z,2.10
2022-08-08T16:55:20.749Z,1.80
2022-08-08T16:55:52.469Z,2.10
2022-08-08T16:58:25.820Z,1.48
2022-08-08T17:00:58.152Z,2.25
2022-08-08T17:04:00.045Z,2.28
2022-08-08T17:06:17.667Z,1.73
2022-08-08T17:09:04.173Z,2.25
2022-08-08T17:11:48.142Z,2.78
2022-08-08T17:14:27.613Z,2.10
2022-08-08T17:17:03.227Z,2.42
2022-08-08T17:19:40.832Z,2.20
2022-08-08T17:22:10.205Z,2.00
2022-08-08T17:24:38.907Z,2.10
2022-08-08T17:27:07.669Z,1.77
2022-08-08T17:29:43.919Z,1.70
2022-08-08T17:32:29.096Z,1.92
2022-08-08T17:35:54.396Z,1.73
2022-08-08T17:37:51.920Z,1.80
2022-08-08T17:40:21.562Z,1.85
2022-08-08T17:42:50.412Z,1.85
2022-08-08T17:45:22.878Z,1.77
2022-08-08T17:47:54.214Z,2.03
2022-08-08T17:50:23.568Z,1.90
2022-08-08T17:52:51.999Z,1.90
2022-08-08T17:56:05.012Z,1.90
2022-08-08T17:58:09.102Z,1.70
2022-08-08T18:00:39.114Z,1.63
2022-08-08T18:03:13.659Z,1.85
2022-08-08T18:05:48.588Z,3.40
2022-08-08T18:08:25.088Z,2.10
2022-08-08T18:11:11.829Z,1.70
2022-08-08T18:13:43.191Z,1.85
2022-08-08T18:16:17.155Z,1.60
2022-08-08T18:18:54.079Z,1.70
2022-08-08T18:22:00.430Z,1.58
2022-08-08T18:24:18.821Z,1.63
2022-08-08T18:26:53.780Z,1.70
2022-08-08T18:29:27.343Z,2.30
2022-08-08T18:32:00.249Z,2.33
2022-08-08T18:34:32.763Z,1.80
2022-08-08T18:37:04.623Z,1.85
2022-08-08T18:39:34.682Z,1.80
2022-08-08T18:42:13.882Z,1.90
2022-08-08T18:44:52.777Z,1.77
2022-08-08T18:47:26.667Z,1.80
2022-08-08T18:49:58.329Z,1.95
2022-08-08T18:52:30.783Z,1.63
2022-08-08T18:55:09.189Z,1.60
2022-08-08T18:57:44.964Z,1.80
2022-08-08T19:00:20.458Z,1.90
2022-08-08T19:02:56.827Z,1.95
2022-08-08T19:05:34.584Z,1.52
2022-08-08T19:08:25.497Z,1.67
2022-08-08T19:10:58.541Z,1.70
2022-08-08T19:13:52.570Z,1.83
2022-08-08T19:16:19.080Z,2.30
2022-08-08T19:19:00.540Z,2.22
2022-08-08T19:21:33.253Z,2.10
2022-08-08T19:24:05.573Z,1.88
2022-08-08T19:26:34.932Z,2.05
2022-08-08T19:29:03.333Z,1.98
2022-08-08T19:31:35.432Z,2.10
2022-08-08T19:34:36.694Z,2.08
2022-08-08T19:36:58.650Z,2.08
2022-08-08T19:39:34.996Z,1.98
2022-08-08T19:42:05.063Z,2.65
2022-08-08T19:44:46.420Z,2.40
2022-08-08T19:47:24.503Z,2.00
2022-08-08T19:50:00.221Z,2.05
2022-08-08T19:52:35.462Z,2.25
2022-08-08T19:55:08.761Z,2.17
2022-08-08T19:57:37.857Z,2.10
2022-08-08T20:00:11.359Z,2.20
2022-08-08T20:02:57.669Z,2.10
2022-08-08T20:06:14.255Z,2.20
2022-08-08T20:08:28.949Z,2.10
2022-08-08T20:11:04.088Z,2.45
2022-08-08T20:14:13.036Z,2.30
2022-08-08T20:16:21.809Z,2.25
2022-08-08T20:18:57.832Z,2.55
2022-08-08T20:21:27.541Z,2.50
2022-08-08T20:24:00.258Z,2.10
2022-08-08T20:26:30.188Z,2.28
2022-08-08T20:29:02.568Z,2.22
2022-08-08T20:32:02.658Z,2.63
2022-08-08T20:34:29.074Z,2.00
2022-08-08T20:37:00.782Z,2.10
2022-08-08T20:39:39.338Z,2.55
2022-08-08T20:42:20.429Z,2.30
2022-08-08T20:44:56.398Z,2.20
2022-08-08T20:47:25.959Z,2.40
2022-08-08T20:49:57.658Z,2.35
2022-08-08T20:52:29.299Z,2.45
2022-08-08T20:54:58.041Z,2.47
2022-08-08T20:57:27.132Z,2.20
2022-08-08T20:59:57.418Z,2.40
2022-08-08T21:02:27.528Z,2.42
2022-08-08T21:05:00.923Z,2.83
2022-08-08T21:08:33.286Z,2.40
2022-08-08T21:10:21.467Z,2.60
2022-08-08T21:12:56.250Z,2.40
2022-08-08T21:16:05.910Z,2.67
2022-08-08T21:18:12.305Z,2.53
2022-08-08T21:20:42.456Z,2.22
2022-08-08T21:23:13.077Z,2.63
2022-08-08T21:25:49.027Z,2.50
2022-08-08T21:28:33.322Z,2.50
2022-08-08T21:31:22.049Z,2.25
2022-08-08T21:33:51.533Z,2.50
2022-08-08T21:36:21.185Z,2.25
2022-08-08T21:38:58.741Z,2.17
2022-08-08T21:41:38.104Z,2.00
2022-08-08T21:44:11.759Z,2.38
2022-08-08T21:48:02.551Z,2.30
2022-08-08T21:49:30.500Z,2.40
2022-08-08T21:54:18.038Z,2.58
2022-08-08T21:55:01.465Z,2.28
2022-08-08T21:57:42.920Z,2.30
2022-08-08T22:00:26.073Z,2.67
2022-08-08T22:02:54.459Z,2.20
2022-08-08T22:05:23.219Z,2.13
2022-08-08T22:07:51.578Z,2.10
2022-08-08T22:10:32.020Z,2.20
2022-08-08T22:13:16.993Z,2.28
2022-08-08T22:15:58.807Z,2.30
2022-08-08T22:18:30.808Z,2.03
2022-08-08T22:21:08.316Z,2.25
2022-08-08T22:23:50.833Z,2.10
2022-08-08T22:26:29.877Z,2.30
2022-08-08T22:29:13.892Z,2.55
2022-08-08T22:31:58.720Z,2.20
2022-08-08T22:34:32.846Z,2.67
2022-08-08T22:37:01.325Z,2.20
2022-08-08T22:39:45.873Z,2.08
2022-08-08T22:42:27.455Z,2.28
2022-08-08T22:45:00.881Z,2.10
2022-08-08T22:47:34.349Z,2.15
2022-08-08T22:50:25.708Z,2.40
2022-08-08T22:54:19.468Z,2.58
2022-08-08T22:55:58.517Z,2.63
2022-08-08T22:58:32.875Z,2.17
2022-08-08T23:01:26.449Z,2.53
2022-08-08T23:03:53.527Z,2.35
2022-08-08T23:06:23.448Z,2.38
2022-08-08T23:08:54.322Z,2.67
2022-08-08T23:11:31.010Z,2.80
2022-08-08T23:14:14.315Z,2.30
2022-08-08T23:16:47.226Z,2.40
2022-08-08T23:19:17.693Z,2.47
2022-08-08T23:21:46.988Z,2.40
2022-08-08T23:24:22.266Z,2.50
2022-08-08T23:26:52.962Z,2.50
2022-08-08T23:29:22.966Z,2.38
2022-08-08T23:31:51.334Z,2.40
2022-08-08T23:34:19.995Z,2.22
2022-08-08T23:36:48.657Z,2.45
2022-08-08T23:39:16.889Z,2.40
2022-08-08T23:41:46.238Z,2.50
2022-08-08T23:44:18.546Z,2.75
2022-08-08T23:48:59.925Z,2.75
2022-08-08T23:49:37.782Z,2.35
2022-08-08T23:52:09.418Z,2.65
2022-08-08T23:54:53.171Z,2.90
2022-08-08T23:57:39.143Z,3.03
